sensor_id;sensor_type;location;lat;lon;timestamp;P1;durP1;ratioP1;P2;durP2;ratioP2
34960;SDS011;30789;52.030;7.110;2023-08-06T00:01:14;5.47;;;4.97;;
34960;SDS011;30789;52.030;7.110;2023-08-06T00:03:41;4.50;;;4.10;;
34960;SDS011;30789;52.030;7.110;2023-08-06T00:06:07;4.97;;;4.43;;
34960;SDS011;30789;52.030;7.110;2023-08-06T00:08:34;5.88;;;4.88;;
34960;SDS011;30789;52.030;7.110;2023-08-06T00:11:00;4.82;;;4.05;;
34960;SDS011;30789;52.030;7.110;2023-08-06T00:13:27;5.60;;;4.97;;
34960;SDS011;30789;52.030;7.110;2023-08-06T00:15:54;4.85;;;3.63;;
34960;SDS011;30789;52.030;7.110;2023-08-06T00:18:21;5.70;;;4.50;;
34960;SDS011;30789;52.030;7.110;2023-08-06T00:20:47;6.63;;;4.30;;
34960;SDS011;30789;52.030;7.110;2023-08-06T00:23:14;4.47;;;4.07;;
34960;SDS011;30789;52.030;7.110;2023-08-06T00:25:40;4.40;;;4.00;;
34960;SDS011;30789;52.030;7.110;2023-08-06T00:28:07;4.20;;;3.75;;
34960;SDS011;30789;52.030;7.110;2023-08-06T00:30:33;6.45;;;4.40;;
34960;SDS011;30789;52.030;7.110;2023-08-06T00:33:01;8.82;;;4.13;;
34960;SDS011;30789;52.030;7.110;2023-08-06T00:35:28;4.18;;;3.63;;
34960;SDS011;30789;52.030;7.110;2023-08-06T00:37:56;4.72;;;4.32;;
34960;SDS011;30789;52.030;7.110;2023-08-06T00:40:22;7.25;;;4.20;;
34960;SDS011;30789;52.030;7.110;2023-08-06T00:42:49;4.95;;;4.13;;
34960;SDS011;30789;52.030;7.110;2023-08-06T00:45:15;5.43;;;4.63;;
34960;SDS011;30789;52.030;7.110;2023-08-06T00:47:42;4.28;;;3.83;;
34960;SDS011;30789;52.030;7.110;2023-08-06T00:50:10;5.32;;;4.53;;
34960;SDS011;30789;52.030;7.110;2023-08-06T00:52:37;4.22;;;3.80;;
34960;SDS011;30789;52.030;7.110;2023-08-06T00:55:04;6.38;;;3.75;;
34960;SDS011;30789;52.030;7.110;2023-08-06T00:57:32;5.22;;;4.70;;
34960;SDS011;30789;52.030;7.110;2023-08-06T00:59:58;4.15;;;3.55;;
34960;SDS011;30789;52.030;7.110;2023-08-06T01:02:25;6.70;;;3.90;;
34960;SDS011;30789;52.030;7.110;2023-08-06T01:04:51;4.70;;;4.15;;
34960;SDS011;30789;52.030;7.110;2023-08-06T01:07:21;6.22;;;4.35;;
34960;SDS011;30789;52.030;7.110;2023-08-06T01:10:04;5.70;;;3.97;;
34960;SDS011;30789;52.030;7.110;2023-08-06T01:12:45;4.22;;;3.83;;
34960;SDS011;30789;52.030;7.110;2023-08-06T01:15:19;6.03;;;4.78;;
34960;SDS011;30789;52.030;7.110;2023-08-06T01:17:48;5.25;;;4.45;;
34960;SDS011;30789;52.030;7.110;2023-08-06T01:20:14;12.82;;;5.03;;
34960;SDS011;30789;52.030;7.110;2023-08-06T01:22:42;6.63;;;4.60;;
34960;SDS011;30789;52.030;7.110;2023-08-06T01:25:09;6.47;;;4.78;;
34960;SDS011;30789;52.030;7.110;2023-08-06T01:27:37;5.05;;;4.32;;
34960;SDS011;30789;52.030;7.110;2023-08-06T01:30:12;4.22;;;3.78;;
34960;SDS011;30789;52.030;7.110;2023-08-06T01:32:42;8.38;;;4.72;;
34960;SDS011;30789;52.030;7.110;2023-08-06T01:35:11;4.50;;;4.10;;
34960;SDS011;30789;52.030;7.110;2023-08-06T01:37:39;7.55;;;3.97;;
34960;SDS011;30789;52.030;7.110;2023-08-06T01:40:11;5.43;;;3.55;;
34960;SDS011;30789;52.030;7.110;2023-08-06T01:42:38;7.68;;;4.20;;
34960;SDS011;30789;52.030;7.110;2023-08-06T01:45:05;5.28;;;3.83;;
34960;SDS011;30789;52.030;7.110;2023-08-06T01:47:33;4.35;;;3.95;;
34960;SDS011;30789;52.030;7.110;2023-08-06T01:49:59;3.95;;;3.58;;
34960;SDS011;30789;52.030;7.110;2023-08-06T01:52:26;4.22;;;3.83;;
34960;SDS011;30789;52.030;7.110;2023-08-06T01:54:53;5.07;;;4.18;;
34960;SDS011;30789;52.030;7.110;2023-08-06T01:57:21;4.72;;;4.22;;
34960;SDS011;30789;52.030;7.110;2023-08-06T01:59:47;6.82;;;4.32;;
34960;SDS011;30789;52.030;7.110;2023-08-06T02:02:14;4.75;;;4.20;;
34960;SDS011;30789;52.030;7.110;2023-08-06T02:04:40;4.40;;;4.00;;
34960;SDS011;30789;52.030;7.110;2023-08-06T02:07:07;5.22;;;3.97;;
34960;SDS011;30789;52.030;7.110;2023-08-06T02:09:33;7.70;;;4.35;;
34960;SDS011;30789;52.030;7.110;2023-08-06T02:12:00;6.22;;;4.28;;
34960;SDS011;30789;52.030;7.110;2023-08-06T02:14:28;6.53;;;4.38;;
34960;SDS011;30789;52.030;7.110;2023-08-06T02:16:55;7.13;;;4.88;;
34960;SDS011;30789;52.030;7.110;2023-08-06T02:19:21;7.30;;;4.88;;
34960;SDS011;30789;52.030;7.110;2023-08-06T02:21:48;5.22;;;4.50;;
34960;SDS011;30789;52.030;7.110;2023-08-06T02:24:14;8.30;;;4.57;;
34960;SDS011;30789;52.030;7.110;2023-08-06T02:26:40;4.70;;;4.30;;
34960;SDS011;30789;52.030;7.110;2023-08-06T02:29:06;4.95;;;4.20;;
34960;SDS011;30789;52.030;7.110;2023-08-06T02:31:34;5.05;;;3.92;;
34960;SDS011;30789;52.030;7.110;2023-08-06T02:34:01;5.85;;;4.75;;
34960;SDS011;30789;52.030;7.110;2023-08-06T02:36:27;4.93;;;4.40;;
34960;SDS011;30789;52.030;7.110;2023-08-06T02:38:54;5.00;;;4.50;;
34960;SDS011;30789;52.030;7.110;2023-08-06T02:41:21;8.65;;;5.10;;
34960;SDS011;30789;52.030;7.110;2023-08-06T02:43:47;7.50;;;5.43;;
34960;SDS011;30789;52.030;7.110;2023-08-06T02:46:13;6.25;;;5.55;;
34960;SDS011;30789;52.030;7.110;2023-08-06T02:48:41;7.55;;;5.28;;
34960;SDS011;30789;52.030;7.110;2023-08-06T02:51:08;5.75;;;5.15;;
34960;SDS011;30789;52.030;7.110;2023-08-06T02:53:34;9.27;;;5.68;;
34960;SDS011;30789;52.030;7.110;2023-08-06T02:56:01;7.95;;;5.82;;
34960;SDS011;30789;52.030;7.110;2023-08-06T02:58:27;6.72;;;5.90;;
34960;SDS011;30789;52.030;7.110;2023-08-06T03:01:00;6.50;;;5.40;;
34960;SDS011;30789;52.030;7.110;2023-08-06T03:03:28;7.43;;;5.25;;
34960;SDS011;30789;52.030;7.110;2023-08-06T03:05:56;9.35;;;6.35;;
34960;SDS011;30789;52.030;7.110;2023-08-06T03:08:23;6.72;;;5.63;;
34960;SDS011;30789;52.030;7.110;2023-08-06T03:10:49;6.85;;;6.15;;
34960;SDS011;30789;52.030;7.110;2023-08-06T03:13:16;9.07;;;5.57;;
34960;SDS011;30789;52.030;7.110;2023-08-06T03:15:43;8.18;;;5.57;;
34960;SDS011;30789;52.030;7.110;2023-08-06T03:18:09;5.97;;;5.10;;
34960;SDS011;30789;52.030;7.110;2023-08-06T03:20:36;6.95;;;6.03;;
34960;SDS011;30789;52.030;7.110;2023-08-06T03:23:04;5.90;;;5.20;;
34960;SDS011;30789;52.030;7.110;2023-08-06T03:25:30;7.07;;;5.75;;
34960;SDS011;30789;52.030;7.110;2023-08-06T03:27:57;7.47;;;5.47;;
34960;SDS011;30789;52.030;7.110;2023-08-06T03:30:23;7.20;;;5.55;;
34960;SDS011;30789;52.030;7.110;2023-08-06T03:32:50;7.68;;;5.40;;
34960;SDS011;30789;52.030;7.110;2023-08-06T03:35:16;6.60;;;5.35;;
34960;SDS011;30789;52.030;7.110;2023-08-06T03:37:43;8.80;;;5.72;;
34960;SDS011;30789;52.030;7.110;2023-08-06T03:40:11;8.32;;;5.72;;
34960;SDS011;30789;52.030;7.110;2023-08-06T03:42:37;10.82;;;5.75;;
34960;SDS011;30789;52.030;7.110;2023-08-06T03:45:04;6.55;;;5.68;;
34960;SDS011;30789;52.030;7.110;2023-08-06T03:47:32;6.65;;;6.03;;
34960;SDS011;30789;52.030;7.110;2023-08-06T03:49:58;10.85;;;6.35;;
34960;SDS011;30789;52.030;7.110;2023-08-06T03:52:25;8.88;;;6.10;;
34960;SDS011;30789;52.030;7.110;2023-08-06T03:54:51;9.25;;;5.75;;
34960;SDS011;30789;52.030;7.110;2023-08-06T03:57:19;6.13;;;5.40;;
34960;SDS011;30789;52.030;7.110;2023-08-06T03:59:45;13.27;;;6.95;;
34960;SDS011;30789;52.030;7.110;2023-08-06T04:02:12;7.68;;;6.13;;
34960;SDS011;30789;52.030;7.110;2023-08-06T04:04:39;8.65;;;6.22;;
34960;SDS011;30789;52.030;7.110;2023-08-06T04:07:05;7.72;;;6.32;;
34960;SDS011;30789;52.030;7.110;2023-08-06T04:09:32;7.22;;;6.50;;
34960;SDS011;30789;52.030;7.110;2023-08-06T04:11:58;7.95;;;5.97;;
34960;SDS011;30789;52.030;7.110;2023-08-06T04:14:28;6.47;;;5.88;;
34960;SDS011;30789;52.030;7.110;2023-08-06T04:16:54;7.75;;;6.03;;
34960;SDS011;30789;52.030;7.110;2023-08-06T04:19:20;7.60;;;6.35;;
34960;SDS011;30789;52.030;7.110;2023-08-06T04:21:47;7.95;;;5.60;;
34960;SDS011;30789;52.030;7.110;2023-08-06T04:24:13;6.90;;;5.88;;
34960;SDS011;30789;52.030;7.110;2023-08-06T04:26:40;6.68;;;5.93;;
34960;SDS011;30789;52.030;7.110;2023-08-06T04:29:06;7.43;;;5.45;;
34960;SDS011;30789;52.030;7.110;2023-08-06T04:31:34;8.27;;;6.68;;
34960;SDS011;30789;52.030;7.110;2023-08-06T04:34:01;16.75;;;6.28;;
34960;SDS011;30789;52.030;7.110;2023-08-06T04:36:27;9.93;;;6.63;;
34960;SDS011;30789;52.030;7.110;2023-08-06T04:38:54;18.95;;;5.68;;
34960;SDS011;30789;52.030;7.110;2023-08-06T04:41:20;6.93;;;6.10;;
34960;SDS011;30789;52.030;7.110;2023-08-06T04:43:47;8.88;;;5.97;;
34960;SDS011;30789;52.030;7.110;2023-08-06T04:46:13;8.55;;;6.18;;
34960;SDS011;30789;52.030;7.110;2023-08-06T04:48:41;9.93;;;6.38;;
34960;SDS011;30789;52.030;7.110;2023-08-06T04:51:07;10.23;;;6.35;;
34960;SDS011;30789;52.030;7.110;2023-08-06T04:53:34;9.57;;;7.13;;
34960;SDS011;30789;52.030;7.110;2023-08-06T04:56:00;9.48;;;6.75;;
34960;SDS011;30789;52.030;7.110;2023-08-06T04:58:27;9.73;;;6.85;;
34960;SDS011;30789;52.030;7.110;2023-08-06T05:00:53;10.18;;;7.13;;
34960;SDS011;30789;52.030;7.110;2023-08-06T05:03:20;10.32;;;6.85;;
34960;SDS011;30789;52.030;7.110;2023-08-06T05:05:48;9.75;;;7.45;;
34960;SDS011;30789;52.030;7.110;2023-08-06T05:08:15;9.27;;;7.43;;
34960;SDS011;30789;52.030;7.110;2023-08-06T05:10:42;10.13;;;7.45;;
34960;SDS011;30789;52.030;7.110;2023-08-06T05:13:09;10.48;;;6.88;;
34960;SDS011;30789;52.030;7.110;2023-08-06T05:15:36;9.55;;;6.90;;
34960;SDS011;30789;52.030;7.110;2023-08-06T05:18:04;9.98;;;6.88;;
34960;SDS011;30789;52.030;7.110;2023-08-06T05:20:31;10.88;;;7.05;;
34960;SDS011;30789;52.030;7.110;2023-08-06T05:23:03;12.38;;;6.82;;
34960;SDS011;30789;52.030;7.110;2023-08-06T05:25:29;9.07;;;7.15;;
34960;SDS011;30789;52.030;7.110;2023-08-06T05:27:56;10.77;;;7.45;;
34960;SDS011;30789;52.030;7.110;2023-08-06T05:30:23;7.78;;;6.50;;
34960;SDS011;30789;52.030;7.110;2023-08-06T05:32:49;7.35;;;6.57;;
34960;SDS011;30789;52.030;7.110;2023-08-06T05:35:16;7.75;;;6.05;;
34960;SDS011;30789;52.030;7.110;2023-08-06T05:37:42;11.02;;;7.57;;
34960;SDS011;30789;52.030;7.110;2023-08-06T05:40:12;8.95;;;6.70;;
34960;SDS011;30789;52.030;7.110;2023-08-06T05:42:39;8.32;;;7.10;;
34960;SDS011;30789;52.030;7.110;2023-08-06T05:45:06;8.63;;;6.80;;
34960;SDS011;30789;52.030;7.110;2023-08-06T05:47:36;7.10;;;6.40;;
34960;SDS011;30789;52.030;7.110;2023-08-06T05:50:03;8.60;;;7.07;;
34960;SDS011;30789;52.030;7.110;2023-08-06T05:52:30;9.60;;;6.90;;
34960;SDS011;30789;52.030;7.110;2023-08-06T05:54:56;10.40;;;6.75;;
34960;SDS011;30789;52.030;7.110;2023-08-06T05:57:24;7.85;;;6.38;;
34960;SDS011;30789;52.030;7.110;2023-08-06T05:59:50;10.63;;;6.60;;
34960;SDS011;30789;52.030;7.110;2023-08-06T06:02:17;9.07;;;6.20;;
34960;SDS011;30789;52.030;7.110;2023-08-06T06:04:44;7.50;;;6.57;;
34960;SDS011;30789;52.030;7.110;2023-08-06T06:07:10;7.15;;;6.45;;
34960;SDS011;30789;52.030;7.110;2023-08-06T06:09:37;8.30;;;6.13;;
34960;SDS011;30789;52.030;7.110;2023-08-06T06:12:05;7.35;;;6.13;;
34960;SDS011;30789;52.030;7.110;2023-08-06T06:14:33;8.27;;;6.32;;
34960;SDS011;30789;52.030;7.110;2023-08-06T06:17:00;8.63;;;5.80;;
34960;SDS011;30789;52.030;7.110;2023-08-06T06:19:26;8.35;;;5.78;;
34960;SDS011;30789;52.030;7.110;2023-08-06T06:21:53;7.80;;;5.47;;
34960;SDS011;30789;52.030;7.110;2023-08-06T06:24:22;8.23;;;5.85;;
34960;SDS011;30789;52.030;7.110;2023-08-06T06:26:49;9.80;;;5.60;;
34960;SDS011;30789;52.030;7.110;2023-08-06T06:29:15;7.47;;;5.75;;
34960;SDS011;30789;52.030;7.110;2023-08-06T06:31:43;11.90;;;5.97;;
34960;SDS011;30789;52.030;7.110;2023-08-06T06:34:10;8.25;;;5.63;;
34960;SDS011;30789;52.030;7.110;2023-08-06T06:36:36;7.57;;;5.38;;
34960;SDS011;30789;52.030;7.110;2023-08-06T06:39:03;7.00;;;5.43;;
34960;SDS011;30789;52.030;7.110;2023-08-06T06:41:29;6.40;;;5.35;;
34960;SDS011;30789;52.030;7.110;2023-08-06T06:43:57;7.63;;;5.18;;
34960;SDS011;30789;52.030;7.110;2023-08-06T06:46:24;6.38;;;5.22;;
34960;SDS011;30789;52.030;7.110;2023-08-06T06:48:52;7.43;;;4.80;;
34960;SDS011;30789;52.030;7.110;2023-08-06T06:51:18;5.63;;;5.00;;
34960;SDS011;30789;52.030;7.110;2023-08-06T06:53:45;7.40;;;5.13;;
34960;SDS011;30789;52.030;7.110;2023-08-06T06:56:11;5.53;;;4.95;;
34960;SDS011;30789;52.030;7.110;2023-08-06T06:58:38;7.25;;;4.78;;
34960;SDS011;30789;52.030;7.110;2023-08-06T07:01:06;4.93;;;4.25;;
34960;SDS011;30789;52.030;7.110;2023-08-06T07:03:32;6.55;;;4.72;;
34960;SDS011;30789;52.030;7.110;2023-08-06T07:06:00;4.88;;;4.38;;
34960;SDS011;30789;52.030;7.110;2023-08-06T07:08:27;7.18;;;4.53;;
34960;SDS011;30789;52.030;7.110;2023-08-06T07:10:59;5.05;;;4.55;;
34960;SDS011;30789;52.030;7.110;2023-08-06T07:13:27;5.88;;;4.00;;
34960;SDS011;30789;52.030;7.110;2023-08-06T07:15:53;4.72;;;3.92;;
34960;SDS011;30789;52.030;7.110;2023-08-06T07:18:20;5.45;;;4.13;;
34960;SDS011;30789;52.030;7.110;2023-08-06T07:20:47;4.03;;;3.63;;
34960;SDS011;30789;52.030;7.110;2023-08-06T07:23:16;4.00;;;3.67;;
34960;SDS011;30789;52.030;7.110;2023-08-06T07:25:42;4.80;;;4.22;;
34960;SDS011;30789;52.030;7.110;2023-08-06T07:28:09;6.28;;;4.03;;
34960;SDS011;30789;52.030;7.110;2023-08-06T07:30:38;4.78;;;4.10;;
34960;SDS011;30789;52.030;7.110;2023-08-06T07:33:04;5.35;;;4.28;;
34960;SDS011;30789;52.030;7.110;2023-08-06T07:35:31;6.72;;;4.13;;
34960;SDS011;30789;52.030;7.110;2023-08-06T07:37:57;6.00;;;4.10;;
34960;SDS011;30789;52.030;7.110;2023-08-06T07:40:26;8.00;;;4.35;;
34960;SDS011;30789;52.030;7.110;2023-08-06T07:42:53;4.07;;;3.67;;
34960;SDS011;30789;52.030;7.110;2023-08-06T07:45:20;4.60;;;4.13;;
34960;SDS011;30789;52.030;7.110;2023-08-06T07:47:47;4.68;;;4.05;;
34960;SDS011;30789;52.030;7.110;2023-08-06T07:50:13;5.00;;;4.50;;
34960;SDS011;30789;52.030;7.110;2023-08-06T07:52:40;5.25;;;3.60;;
34960;SDS011;30789;52.030;7.110;2023-08-06T07:55:07;4.93;;;3.72;;
34960;SDS011;30789;52.030;7.110;2023-08-06T07:57:35;5.55;;;3.95;;
34960;SDS011;30789;52.030;7.110;2023-08-06T08:00:03;7.13;;;4.00;;
34960;SDS011;30789;52.030;7.110;2023-08-06T08:02:30;4.47;;;4.07;;
34960;SDS011;30789;52.030;7.110;2023-08-06T08:04:57;4.32;;;3.92;;
34960;SDS011;30789;52.030;7.110;2023-08-06T08:07:23;5.13;;;4.50;;
34960;SDS011;30789;52.030;7.110;2023-08-06T08:09:52;6.60;;;3.90;;
34960;SDS011;30789;52.030;7.110;2023-08-06T08:12:19;6.47;;;4.45;;
34960;SDS011;30789;52.030;7.110;2023-08-06T08:14:47;4.50;;;4.10;;
34960;SDS011;30789;52.030;7.110;2023-08-06T08:17:13;6.90;;;4.18;;
34960;SDS011;30789;52.030;7.110;2023-08-06T08:19:40;4.97;;;4.07;;
34960;SDS011;30789;52.030;7.110;2023-08-06T08:22:07;4.88;;;4.32;;
34960;SDS011;30789;52.030;7.110;2023-08-06T08:24:33;5.07;;;4.40;;
34960;SDS011;30789;52.030;7.110;2023-08-06T08:27:00;4.38;;;3.97;;
34960;SDS011;30789;52.030;7.110;2023-08-06T08:29:26;5.53;;;4.85;;
34960;SDS011;30789;52.030;7.110;2023-08-06T08:31:54;4.43;;;3.65;;
34960;SDS011;30789;52.030;7.110;2023-08-06T08:34:21;5.45;;;4.63;;
34960;SDS011;30789;52.030;7.110;2023-08-06T08:36:47;5.00;;;4.10;;
34960;SDS011;30789;52.030;7.110;2023-08-06T08:39:15;4.85;;;4.40;;
34960;SDS011;30789;52.030;7.110;2023-08-06T08:41:41;5.97;;;4.40;;
34960;SDS011;30789;52.030;7.110;2023-08-06T08:44:09;5.40;;;3.90;;
34960;SDS011;30789;52.030;7.110;2023-08-06T08:46:36;5.82;;;3.95;;
34960;SDS011;30789;52.030;7.110;2023-08-06T08:49:05;4.95;;;4.38;;
34960;SDS011;30789;52.030;7.110;2023-08-06T08:51:33;6.05;;;4.70;;
34960;SDS011;30789;52.030;7.110;2023-08-06T08:54:00;4.63;;;4.03;;
34960;SDS011;30789;52.030;7.110;2023-08-06T08:56:29;5.75;;;4.25;;
34960;SDS011;30789;52.030;7.110;2023-08-06T08:58:56;5.63;;;4.60;;
34960;SDS011;30789;52.030;7.110;2023-08-06T09:01:22;8.55;;;4.45;;
34960;SDS011;30789;52.030;7.110;2023-08-06T09:03:51;5.00;;;4.50;;
34960;SDS011;30789;52.030;7.110;2023-08-06T09:06:21;5.57;;;4.55;;
34960;SDS011;30789;52.030;7.110;2023-08-06T09:08:50;7.82;;;4.20;;
34960;SDS011;30789;52.030;7.110;2023-08-06T09:11:20;4.35;;;3.95;;
34960;SDS011;30789;52.030;7.110;2023-08-06T09:13:47;5.53;;;4.45;;
34960;SDS011;30789;52.030;7.110;2023-08-06T09:16:13;4.43;;;3.88;;
34960;SDS011;30789;52.030;7.110;2023-08-06T09:18:40;7.97;;;4.10;;
34960;SDS011;30789;52.030;7.110;2023-08-06T09:21:06;4.05;;;3.65;;
34960;SDS011;30789;52.030;7.110;2023-08-06T09:23:41;5.63;;;3.50;;
34960;SDS011;30789;52.030;7.110;2023-08-06T09:26:10;4.32;;;3.50;;
34960;SDS011;30789;52.030;7.110;2023-08-06T09:28:37;4.22;;;2.88;;
34960;SDS011;30789;52.030;7.110;2023-08-06T09:31:07;4.13;;;3.30;;
34960;SDS011;30789;52.030;7.110;2023-08-06T09:33:35;3.83;;;3.40;;
34960;SDS011;30789;52.030;7.110;2023-08-06T09:36:07;4.47;;;3.35;;
34960;SDS011;30789;52.030;7.110;2023-08-06T09:38:37;3.70;;;2.95;;
34960;SDS011;30789;52.030;7.110;2023-08-06T09:41:06;2.85;;;2.60;;
34960;SDS011;30789;52.030;7.110;2023-08-06T09:43:39;5.97;;;2.72;;
34960;SDS011;30789;52.030;7.110;2023-08-06T09:46:10;4.13;;;3.20;;
34960;SDS011;30789;52.030;7.110;2023-08-06T09:48:38;5.00;;;3.10;;
34960;SDS011;30789;52.030;7.110;2023-08-06T09:51:08;3.17;;;2.88;;
34960;SDS011;30789;52.030;7.110;2023-08-06T09:53:35;5.32;;;2.97;;
34960;SDS011;30789;52.030;7.110;2023-08-06T09:56:03;5.65;;;2.92;;
34960;SDS011;30789;52.030;7.110;2023-08-06T09:58:32;4.10;;;3.22;;
34960;SDS011;30789;52.030;7.110;2023-08-06T10:00:59;6.18;;;3.70;;
34960;SDS011;30789;52.030;7.110;2023-08-06T10:03:27;4.70;;;3.08;;
34960;SDS011;30789;52.030;7.110;2023-08-06T10:05:55;4.05;;;3.25;;
34960;SDS011;30789;52.030;7.110;2023-08-06T10:08:22;3.92;;;3.05;;
34960;SDS011;30789;52.030;7.110;2023-08-06T10:10:49;3.05;;;2.67;;
34960;SDS011;30789;52.030;7.110;2023-08-06T10:13:17;6.13;;;3.47;;
34960;SDS011;30789;52.030;7.110;2023-08-06T10:15:47;5.38;;;3.33;;
34960;SDS011;30789;52.030;7.110;2023-08-06T10:18:15;3.08;;;2.80;;
34960;SDS011;30789;52.030;7.110;2023-08-06T10:20:46;5.95;;;2.90;;
34960;SDS011;30789;52.030;7.110;2023-08-06T10:23:12;4.22;;;2.70;;
34960;SDS011;30789;52.030;7.110;2023-08-06T10:25:40;3.38;;;3.05;;
34960;SDS011;30789;52.030;7.110;2023-08-06T10:28:07;5.30;;;2.50;;
34960;SDS011;30789;52.030;7.110;2023-08-06T10:30:42;3.05;;;2.25;;
34960;SDS011;30789;52.030;7.110;2023-08-06T10:33:10;4.32;;;2.60;;
34960;SDS011;30789;52.030;7.110;2023-08-06T10:35:40;5.13;;;3.03;;
34960;SDS011;30789;52.030;7.110;2023-08-06T10:38:09;3.20;;;2.20;;
34960;SDS011;30789;52.030;7.110;2023-08-06T10:40:47;3.08;;;2.38;;
34960;SDS011;30789;52.030;7.110;2023-08-06T10:43:24;2.42;;;2.00;;
34960;SDS011;30789;52.030;7.110;2023-08-06T10:45:53;1.77;;;1.67;;
34960;SDS011;30789;52.030;7.110;2023-08-06T10:48:28;2.35;;;2.10;;
34960;SDS011;30789;52.030;7.110;2023-08-06T10:50:56;3.22;;;1.65;;
34960;SDS011;30789;52.030;7.110;2023-08-06T10:53:22;1.70;;;1.60;;
34960;SDS011;30789;52.030;7.110;2023-08-06T10:55:49;2.45;;;2.25;;
34960;SDS011;30789;52.030;7.110;2023-08-06T10:58:15;2.40;;;2.20;;
34960;SDS011;30789;52.030;7.110;2023-08-06T11:00:42;2.08;;;1.90;;
34960;SDS011;30789;52.030;7.110;2023-08-06T11:03:10;4.00;;;1.90;;
34960;SDS011;30789;52.030;7.110;2023-08-06T11:05:37;2.40;;;2.20;;
34960;SDS011;30789;52.030;7.110;2023-08-06T11:08:04;3.70;;;2.13;;
34960;SDS011;30789;52.030;7.110;2023-08-06T11:10:32;3.20;;;2.10;;
34960;SDS011;30789;52.030;7.110;2023-08-06T11:13:00;2.17;;;1.80;;
34960;SDS011;30789;52.030;7.110;2023-08-06T11:15:27;2.15;;;1.95;;
34960;SDS011;30789;52.030;7.110;2023-08-06T11:17:54;4.65;;;2.35;;
34960;SDS011;30789;52.030;7.110;2023-08-06T11:20:22;3.25;;;2.45;;
34960;SDS011;30789;52.030;7.110;2023-08-06T11:22:49;2.65;;;2.35;;
34960;SDS011;30789;52.030;7.110;2023-08-06T11:25:17;3.22;;;2.70;;
34960;SDS011;30789;52.030;7.110;2023-08-06T11:27:46;2.47;;;2.22;;
34960;SDS011;30789;52.030;7.110;2023-08-06T11:30:14;3.22;;;2.58;;
34960;SDS011;30789;52.030;7.110;2023-08-06T11:32:47;6.53;;;4.50;;
34960;SDS011;30789;52.030;7.110;2023-08-06T11:35:14;3.88;;;2.97;;
34960;SDS011;30789;52.030;7.110;2023-08-06T11:37:44;3.22;;;2.65;;
34960;SDS011;30789;52.030;7.110;2023-08-06T11:40:13;5.35;;;2.17;;
34960;SDS011;30789;52.030;7.110;2023-08-06T11:42:41;3.83;;;2.15;;
34960;SDS011;30789;52.030;7.110;2023-08-06T11:45:08;2.00;;;1.80;;
34960;SDS011;30789;52.030;7.110;2023-08-06T11:47:37;2.78;;;1.90;;
34960;SDS011;30789;52.030;7.110;2023-08-06T11:50:05;4.53;;;1.88;;
34960;SDS011;30789;52.030;7.110;2023-08-06T11:52:32;1.77;;;1.67;;
34960;SDS011;30789;52.030;7.110;2023-08-06T11:55:01;3.28;;;1.90;;
34960;SDS011;30789;52.030;7.110;2023-08-06T11:57:31;1.85;;;1.75;;
34960;SDS011;30789;52.030;7.110;2023-08-06T12:00:01;1.65;;;1.45;;
34960;SDS011;30789;52.030;7.110;2023-08-06T12:02:32;3.05;;;1.60;;
34960;SDS011;30789;52.030;7.110;2023-08-06T12:05:03;1.65;;;1.52;;
34960;SDS011;30789;52.030;7.110;2023-08-06T12:07:30;3.10;;;1.45;;
34960;SDS011;30789;52.030;7.110;2023-08-06T12:09:58;3.40;;;1.85;;
34960;SDS011;30789;52.030;7.110;2023-08-06T12:14:54;2.00;;;1.65;;
34960;SDS011;30789;52.030;7.110;2023-08-06T12:17:21;1.80;;;1.42;;
34960;SDS011;30789;52.030;7.110;2023-08-06T12:19:48;1.67;;;1.58;;
34960;SDS011;30789;52.030;7.110;2023-08-06T12:22:15;2.50;;;1.50;;
34960;SDS011;30789;52.030;7.110;2023-08-06T12:24:42;4.13;;;1.80;;
34960;SDS011;30789;52.030;7.110;2023-08-06T12:27:10;2.35;;;1.60;;
34960;SDS011;30789;52.030;7.110;2023-08-06T12:29:39;2.40;;;1.73;;
34960;SDS011;30789;52.030;7.110;2023-08-06T12:32:07;3.37;;;2.20;;
34960;SDS011;30789;52.030;7.110;2023-08-06T12:37:01;4.18;;;2.20;;
34960;SDS011;30789;52.030;7.110;2023-08-06T12:39:28;3.25;;;2.83;;
34960;SDS011;30789;52.030;7.110;2023-08-06T12:41:56;2.67;;;2.42;;
34960;SDS011;30789;52.030;7.110;2023-08-06T12:44:23;3.90;;;2.70;;
34960;SDS011;30789;52.030;7.110;2023-08-06T12:46:51;4.20;;;2.63;;
34960;SDS011;30789;52.030;7.110;2023-08-06T12:49:18;2.92;;;2.63;;
34960;SDS011;30789;52.030;7.110;2023-08-06T12:51:46;4.38;;;2.95;;
34960;SDS011;30789;52.030;7.110;2023-08-06T12:54:12;4.28;;;2.90;;
34960;SDS011;30789;52.030;7.110;2023-08-06T12:59:18;4.75;;;3.28;;
34960;SDS011;30789;52.030;7.110;2023-08-06T13:01:45;4.05;;;2.50;;
34960;SDS011;30789;52.030;7.110;2023-08-06T13:04:14;3.00;;;2.70;;
34960;SDS011;30789;52.030;7.110;2023-08-06T13:06:41;3.03;;;2.70;;
34960;SDS011;30789;52.030;7.110;2023-08-06T13:09:07;4.82;;;3.03;;
34960;SDS011;30789;52.030;7.110;2023-08-06T13:11:34;2.60;;;2.30;;
34960;SDS011;30789;52.030;7.110;2023-08-06T13:14:06;3.38;;;3.08;;
34960;SDS011;30789;52.030;7.110;2023-08-06T13:16:34;3.38;;;3.03;;
34960;SDS011;30789;52.030;7.110;2023-08-06T13:19:01;5.15;;;3.00;;
34960;SDS011;30789;52.030;7.110;2023-08-06T13:21:32;3.45;;;2.63;;
34960;SDS011;30789;52.030;7.110;2023-08-06T13:24:00;2.97;;;2.58;;
34960;SDS011;30789;52.030;7.110;2023-08-06T13:26:27;3.97;;;2.75;;
34960;SDS011;30789;52.030;7.110;2023-08-06T13:28:54;1.48;;;1.35;;
34960;SDS011;30789;52.030;7.110;2023-08-06T13:31:21;1.88;;;1.70;;
34960;SDS011;30789;52.030;7.110;2023-08-06T13:33:47;2.13;;;1.80;;
34960;SDS011;30789;52.030;7.110;2023-08-06T13:36:15;3.13;;;2.10;;
34960;SDS011;30789;52.030;7.110;2023-08-06T13:38:43;2.72;;;2.22;;
34960;SDS011;30789;52.030;7.110;2023-08-06T13:41:09;2.53;;;2.33;;
34960;SDS011;30789;52.030;7.110;2023-08-06T13:43:36;4.90;;;2.63;;
34960;SDS011;30789;52.030;7.110;2023-08-06T13:46:02;3.72;;;2.85;;
34960;SDS011;30789;52.030;7.110;2023-08-06T13:48:29;2.65;;;2.22;;
34960;SDS011;30789;52.030;7.110;2023-08-06T13:50:55;4.25;;;2.97;;
34960;SDS011;30789;52.030;7.110;2023-08-06T13:53:22;3.95;;;2.47;;
34960;SDS011;30789;52.030;7.110;2023-08-06T13:55:51;5.40;;;3.45;;
34960;SDS011;30789;52.030;7.110;2023-08-06T13:58:18;5.70;;;5.10;;
34960;SDS011;30789;52.030;7.110;2023-08-06T14:00:44;7.93;;;5.97;;
34960;SDS011;30789;52.030;7.110;2023-08-06T14:03:11;5.88;;;4.90;;
34960;SDS011;30789;52.030;7.110;2023-08-06T14:05:37;5.03;;;4.55;;
34960;SDS011;30789;52.030;7.110;2023-08-06T14:08:04;4.43;;;4.03;;
34960;SDS011;30789;52.030;7.110;2023-08-06T14:10:30;4.22;;;3.05;;
34960;SDS011;30789;52.030;7.110;2023-08-06T14:12:58;3.85;;;3.45;;
34960;SDS011;30789;52.030;7.110;2023-08-06T14:15:25;3.53;;;2.50;;
34960;SDS011;30789;52.030;7.110;2023-08-06T14:17:51;2.22;;;2.03;;
34960;SDS011;30789;52.030;7.110;2023-08-06T14:20:18;3.00;;;2.15;;
34960;SDS011;30789;52.030;7.110;2023-08-06T14:22:44;2.28;;;2.08;;
34960;SDS011;30789;52.030;7.110;2023-08-06T14:25:11;2.15;;;1.95;;
34960;SDS011;30789;52.030;7.110;2023-08-06T14:27:37;2.10;;;1.90;;
34960;SDS011;30789;52.030;7.110;2023-08-06T14:30:07;3.80;;;2.72;;
34960;SDS011;30789;52.030;7.110;2023-08-06T14:32:34;3.17;;;2.40;;
34960;SDS011;30789;52.030;7.110;2023-08-06T14:35:00;3.28;;;2.47;;
34960;SDS011;30789;52.030;7.110;2023-08-06T14:37:27;5.80;;;4.28;;
34960;SDS011;30789;52.030;7.110;2023-08-06T14:39:53;2.95;;;2.75;;
34960;SDS011;30789;52.030;7.110;2023-08-06T14:42:20;5.32;;;4.03;;
34960;SDS011;30789;52.030;7.110;2023-08-06T14:44:47;5.78;;;3.33;;
34960;SDS011;30789;52.030;7.110;2023-08-06T14:47:14;2.60;;;2.40;;
34960;SDS011;30789;52.030;7.110;2023-08-06T14:49:41;2.50;;;2.03;;
34960;SDS011;30789;52.030;7.110;2023-08-06T14:52:07;4.40;;;2.00;;
34960;SDS011;30789;52.030;7.110;2023-08-06T14:54:34;2.58;;;2.10;;
34960;SDS011;30789;52.030;7.110;2023-08-06T14:57:01;2.15;;;1.88;;